sensor_id;sensor_type;location;lat;lon;timestamp;P1;durP1;ratioP1;P2;durP2;ratioP2
44078;SDS011;29744;49.078;12.878;2024-03-08T00:04:32;3.22;;;2.00;;
44078;SDS011;29744;49.078;12.878;2024-03-08T00:09:32;2.88;;;2.00;;
44078;SDS011;29744;49.078;12.878;2024-03-08T00:14:32;3.38;;;1.90;;
44078;SDS011;29744;49.078;12.878;2024-03-08T00:19:33;2.92;;;1.83;;
44078;SDS011;29744;49.078;12.878;2024-03-08T00:24:33;3.30;;;2.13;;
44078;SDS011;29744;49.078;12.878;2024-03-08T00:29:34;3.20;;;1.90;;
44078;SDS011;29744;49.078;12.878;2024-03-08T00:34:37;3.65;;;2.10;;
44078;SDS011;29744;49.078;12.878;2024-03-08T00:39:37;3.40;;;2.00;;
44078;SDS011;29744;49.078;12.878;2024-03-08T00:44:38;3.45;;;2.13;;
44078;SDS011;29744;49.078;12.878;2024-03-08T00:49:40;3.53;;;2.10;;
44078;SDS011;29744;49.078;12.878;2024-03-08T00:54:41;3.20;;;2.10;;
44078;SDS011;29744;49.078;12.878;2024-03-08T00:59:43;3.40;;;2.10;;
44078;SDS011;29744;49.078;12.878;2024-03-08T01:04:43;3.80;;;2.15;;
44078;SDS011;29744;49.078;12.878;2024-03-08T01:09:43;2.98;;;1.94;;
44078;SDS011;29744;49.078;12.878;2024-03-08T01:14:44;3.30;;;2.10;;
44078;SDS011;29744;49.078;12.878;2024-03-08T01:19:44;3.70;;;2.15;;
44078;SDS011;29744;49.078;12.878;2024-03-08T01:24:45;3.05;;;1.98;;
44078;SDS011;29744;49.078;12.878;2024-03-08T01:29:45;3.80;;;2.20;;
44078;SDS011;29744;49.078;12.878;2024-03-08T01:34:45;3.67;;;2.20;;
44078;SDS011;29744;49.078;12.878;2024-03-08T01:39:46;2.67;;;1.70;;
44078;SDS011;29744;49.078;12.878;2024-03-08T01:44:46;3.78;;;2.40;;
44078;SDS011;29744;49.078;12.878;2024-03-08T01:49:47;3.50;;;2.05;;
44078;SDS011;29744;49.078;12.878;2024-03-08T01:54:47;3.03;;;1.95;;
44078;SDS011;29744;49.078;12.878;2024-03-08T01:59:47;3.88;;;1.98;;
44078;SDS011;29744;49.078;12.878;2024-03-08T02:04:48;3.60;;;2.25;;
44078;SDS011;29744;49.078;12.878;2024-03-08T02:09:49;3.17;;;2.00;;
44078;SDS011;29744;49.078;12.878;2024-03-08T02:14:51;3.45;;;1.98;;
44078;SDS011;29744;49.078;12.878;2024-03-08T02:19:51;3.35;;;2.20;;
44078;SDS011;29744;49.078;12.878;2024-03-08T02:24:51;3.97;;;2.47;;
44078;SDS011;29744;49.078;12.878;2024-03-08T02:29:55;3.40;;;1.98;;
44078;SDS011;29744;49.078;12.878;2024-03-08T02:34:56;2.88;;;1.90;;
44078;SDS011;29744;49.078;12.878;2024-03-08T02:39:59;3.42;;;2.00;;
44078;SDS011;29744;49.078;12.878;2024-03-08T02:45:00;3.42;;;2.22;;
44078;SDS011;29744;49.078;12.878;2024-03-08T02:50:00;3.02;;;2.00;;
44078;SDS011;29744;49.078;12.878;2024-03-08T02:55:01;3.45;;;2.00;;
44078;SDS011;29744;49.078;12.878;2024-03-08T03:00:02;3.50;;;1.90;;
44078;SDS011;29744;49.078;12.878;2024-03-08T03:05:09;3.30;;;2.00;;
44078;SDS011;29744;49.078;12.878;2024-03-08T03:10:11;2.83;;;1.73;;
44078;SDS011;29744;49.078;12.878;2024-03-08T03:15:12;3.03;;;1.98;;
44078;SDS011;29744;49.078;12.878;2024-03-08T03:20:13;3.40;;;1.90;;
44078;SDS011;29744;49.078;12.878;2024-03-08T03:25:14;3.28;;;2.08;;
44078;SDS011;29744;49.078;12.878;2024-03-08T03:30:14;3.03;;;2.08;;
44078;SDS011;29744;49.078;12.878;2024-03-08T03:35:26;4.00;;;2.15;;
44078;SDS011;29744;49.078;12.878;2024-03-08T03:40:28;3.17;;;1.80;;
44078;SDS011;29744;49.078;12.878;2024-03-08T03:45:29;2.92;;;1.67;;
44078;SDS011;29744;49.078;12.878;2024-03-08T03:50:29;3.67;;;2.00;;
44078;SDS011;29744;49.078;12.878;2024-03-08T03:55:30;2.88;;;1.98;;
44078;SDS011;29744;49.078;12.878;2024-03-08T04:00:30;2.92;;;1.77;;
44078;SDS011;29744;49.078;12.878;2024-03-08T04:05:30;3.22;;;1.90;;
44078;SDS011;29744;49.078;12.878;2024-03-08T04:10:31;2.33;;;1.58;;
44078;SDS011;29744;49.078;12.878;2024-03-08T04:15:32;3.30;;;1.90;;
44078;SDS011;29744;49.078;12.878;2024-03-08T04:20:32;3.15;;;1.80;;
44078;SDS011;29744;49.078;12.878;2024-03-08T04:25:32;3.55;;;2.08;;
44078;SDS011;29744;49.078;12.878;2024-03-08T04:30:33;3.05;;;1.85;;
44078;SDS011;29744;49.078;12.878;2024-03-08T04:35:33;2.97;;;1.83;;
44078;SDS011;29744;49.078;12.878;2024-03-08T04:40:34;3.47;;;2.20;;
44078;SDS011;29744;49.078;12.878;2024-03-08T04:45:34;3.30;;;1.95;;
44078;SDS011;29744;49.078;12.878;2024-03-08T04:50:35;3.22;;;2.20;;
44078;SDS011;29744;49.078;12.878;2024-03-08T04:55:35;3.53;;;2.05;;
44078;SDS011;29744;49.078;12.878;2024-03-08T05:00:37;2.78;;;1.80;;
44078;SDS011;29744;49.078;12.878;2024-03-08T05:05:37;2.67;;;1.80;;
44078;SDS011;29744;49.078;12.878;2024-03-08T05:10:38;3.20;;;1.92;;
44078;SDS011;29744;49.078;12.878;2024-03-08T05:15:38;2.72;;;1.67;;
44078;SDS011;29744;49.078;12.878;2024-03-08T05:20:39;3.05;;;1.80;;
44078;SDS011;29744;49.078;12.878;2024-03-08T05:25:41;3.33;;;1.77;;
44078;SDS011;29744;49.078;12.878;2024-03-08T05:30:41;3.25;;;1.75;;
44078;SDS011;29744;49.078;12.878;2024-03-08T05:35:41;2.72;;;1.50;;
44078;SDS011;29744;49.078;12.878;2024-03-08T05:40:42;2.90;;;1.70;;
44078;SDS011;29744;49.078;12.878;2024-03-08T05:45:43;3.30;;;1.85;;
44078;SDS011;29744;49.078;12.878;2024-03-08T05:50:43;2.42;;;1.55;;
44078;SDS011;29744;49.078;12.878;2024-03-08T05:55:44;2.38;;;1.50;;
44078;SDS011;29744;49.078;12.878;2024-03-08T06:00:44;2.22;;;1.40;;
44078;SDS011;29744;49.078;12.878;2024-03-08T06:05:46;2.53;;;1.60;;
44078;SDS011;29744;49.078;12.878;2024-03-08T06:10:47;2.50;;;1.50;;
44078;SDS011;29744;49.078;12.878;2024-03-08T06:15:52;2.65;;;1.50;;
44078;SDS011;29744;49.078;12.878;2024-03-08T06:20:52;2.80;;;1.55;;
44078;SDS011;29744;49.078;12.878;2024-03-08T06:25:53;2.13;;;1.40;;
44078;SDS011;29744;49.078;12.878;2024-03-08T06:30:53;2.28;;;1.40;;
44078;SDS011;29744;49.078;12.878;2024-03-08T06:35:54;2.83;;;1.60;;
44078;SDS011;29744;49.078;12.878;2024-03-08T06:40:57;6.07;;;2.90;;
44078;SDS011;29744;49.078;12.878;2024-03-08T06:45:57;5.00;;;3.45;;
44078;SDS011;29744;49.078;12.878;2024-03-08T06:50:57;6.75;;;3.28;;
44078;SDS011;29744;49.078;12.878;2024-03-08T06:55:58;7.26;;;3.70;;
44078;SDS011;29744;49.078;12.878;2024-03-08T07:00:58;5.25;;;3.42;;
44078;SDS011;29744;49.078;12.878;2024-03-08T07:06:00;10.05;;;3.53;;
44078;SDS011;29744;49.078;12.878;2024-03-08T07:11:02;6.63;;;3.55;;
44078;SDS011;29744;49.078;12.878;2024-03-08T07:16:03;5.28;;;3.40;;
44078;SDS011;29744;49.078;12.878;2024-03-08T07:21:05;6.28;;;3.47;;
44078;SDS011;29744;49.078;12.878;2024-03-08T07:26:05;5.95;;;3.38;;
44078;SDS011;29744;49.078;12.878;2024-03-08T07:31:06;5.18;;;3.33;;
44078;SDS011;29744;49.078;12.878;2024-03-08T07:36:21;4.57;;;3.20;;
44078;SDS011;29744;49.078;12.878;2024-03-08T07:41:22;5.60;;;3.35;;
44078;SDS011;29744;49.078;12.878;2024-03-08T07:46:23;5.40;;;3.38;;
44078;SDS011;29744;49.078;12.878;2024-03-08T07:51:23;5.02;;;3.20;;
44078;SDS011;29744;49.078;12.878;2024-03-08T07:56:23;5.85;;;3.15;;
44078;SDS011;29744;49.078;12.878;2024-03-08T08:01:25;4.32;;;2.85;;
44078;SDS011;29744;49.078;12.878;2024-03-08T08:06:25;4.68;;;3.00;;
44078;SDS011;29744;49.078;12.878;2024-03-08T08:11:26;6.63;;;3.47;;
44078;SDS011;29744;49.078;12.878;2024-03-08T08:16:28;4.78;;;3.10;;
44078;SDS011;29744;49.078;12.878;2024-03-08T08:21:29;4.60;;;3.15;;
44078;SDS011;29744;49.078;12.878;2024-03-08T08:26:29;4.05;;;2.90;;
44078;SDS011;29744;49.078;12.878;2024-03-08T08:31:31;11.73;;;7.80;;
44078;SDS011;29744;49.078;12.878;2024-03-08T08:36:32;11.98;;;8.25;;
44078;SDS011;29744;49.078;12.878;2024-03-08T08:41:32;13.73;;;9.85;;
44078;SDS011;29744;49.078;12.878;2024-03-08T08:46:32;11.98;;;8.18;;
44078;SDS011;29744;49.078;12.878;2024-03-08T08:51:33;12.25;;;8.10;;
44078;SDS011;29744;49.078;12.878;2024-03-08T08:56:33;12.07;;;8.18;;
44078;SDS011;29744;49.078;12.878;2024-03-08T09:01:34;13.77;;;8.30;;
44078;SDS011;29744;49.078;12.878;2024-03-08T09:06:34;11.60;;;7.63;;
44078;SDS011;29744;49.078;12.878;2024-03-08T09:11:35;11.32;;;7.60;;
44078;SDS011;29744;49.078;12.878;2024-03-08T09:16:38;10.73;;;6.95;;
44078;SDS011;29744;49.078;12.878;2024-03-08T09:21:38;8.93;;;6.75;;
44078;SDS011;29744;49.078;12.878;2024-03-08T09:26:40;9.85;;;7.10;;
44078;SDS011;29744;49.078;12.878;2024-03-08T09:31:42;10.40;;;6.78;;
44078;SDS011;29744;49.078;12.878;2024-03-08T09:36:42;8.57;;;6.18;;
44078;SDS011;29744;49.078;12.878;2024-03-08T09:41:43;9.32;;;6.47;;
44078;SDS011;29744;49.078;12.878;2024-03-08T09:46:43;9.45;;;6.40;;
44078;SDS011;29744;49.078;12.878;2024-03-08T09:51:47;9.57;;;6.13;;
44078;SDS011;29744;49.078;12.878;2024-03-08T09:56:51;8.65;;;5.80;;
44078;SDS011;29744;49.078;12.878;2024-03-08T10:01:52;9.65;;;6.40;;
44078;SDS011;29744;49.078;12.878;2024-03-08T10:06:59;8.25;;;5.97;;
44078;SDS011;29744;49.078;12.878;2024-03-08T10:12:01;8.95;;;6.00;;
44078;SDS011;29744;49.078;12.878;2024-03-08T10:17:03;7.97;;;5.63;;
44078;SDS011;29744;49.078;12.878;2024-03-08T10:22:03;7.60;;;5.28;;
44078;SDS011;29744;49.078;12.878;2024-03-08T10:27:04;7.28;;;5.32;;
44078;SDS011;29744;49.078;12.878;2024-03-08T10:32:05;7.78;;;5.30;;
44078;SDS011;29744;49.078;12.878;2024-03-08T10:37:07;7.07;;;5.32;;
44078;SDS011;29744;49.078;12.878;2024-03-08T10:42:17;7.30;;;5.32;;
44078;SDS011;29744;49.078;12.878;2024-03-08T10:47:26;7.75;;;5.05;;
44078;SDS011;29744;49.078;12.878;2024-03-08T10:52:30;7.47;;;4.95;;
44078;SDS011;29744;49.078;12.878;2024-03-08T10:57:31;7.45;;;5.28;;
44078;SDS011;29744;49.078;12.878;2024-03-08T11:02:32;7.15;;;4.82;;
44078;SDS011;29744;49.078;12.878;2024-03-08T11:07:35;7.46;;;4.90;;
44078;SDS011;29744;49.078;12.878;2024-03-08T11:12:38;7.30;;;5.10;;
44078;SDS011;29744;49.078;12.878;2024-03-08T11:22:39;6.85;;;4.78;;
44078;SDS011;29744;49.078;12.878;2024-03-08T11:27:44;7.03;;;4.70;;
44078;SDS011;29744;49.078;12.878;2024-03-08T11:32:53;6.80;;;4.65;;
44078;SDS011;29744;49.078;12.878;2024-03-08T11:37:53;6.72;;;4.30;;
44078;SDS011;29744;49.078;12.878;2024-03-08T11:42:54;7.43;;;4.80;;
44078;SDS011;29744;49.078;12.878;2024-03-08T11:47:55;6.18;;;4.25;;
44078;SDS011;29744;49.078;12.878;2024-03-08T11:53:05;6.13;;;4.22;;
44078;SDS011;29744;49.078;12.878;2024-03-08T11:58:05;6.68;;;4.53;;
44078;SDS011;29744;49.078;12.878;2024-03-08T12:03:08;5.93;;;4.20;;
44078;SDS011;29744;49.078;12.878;2024-03-08T12:08:12;5.38;;;3.97;;
44078;SDS011;29744;49.078;12.878;2024-03-08T12:13:13;6.10;;;4.07;;
44078;SDS011;29744;49.078;12.878;2024-03-08T12:18:14;6.20;;;4.32;;
44078;SDS011;29744;49.078;12.878;2024-03-08T12:23:15;7.10;;;4.47;;
44078;SDS011;29744;49.078;12.878;2024-03-08T12:28:16;5.88;;;4.05;;
44078;SDS011;29744;49.078;12.878;2024-03-08T12:33:19;6.07;;;4.07;;
44078;SDS011;29744;49.078;12.878;2024-03-08T12:38:20;5.43;;;3.63;;
44078;SDS011;29744;49.078;12.878;2024-03-08T12:43:25;6.05;;;4.20;;
44078;SDS011;29744;49.078;12.878;2024-03-08T12:48:25;5.88;;;3.80;;
44078;SDS011;29744;49.078;12.878;2024-03-08T12:53:25;4.85;;;3.58;;
44078;SDS011;29744;49.078;12.878;2024-03-08T12:58:28;5.78;;;3.60;;
44078;SDS011;29744;49.078;12.878;2024-03-08T13:03:29;5.15;;;3.80;;
44078;SDS011;29744;49.078;12.878;2024-03-08T13:08:29;5.13;;;3.92;;
44078;SDS011;29744;49.078;12.878;2024-03-08T13:13:31;5.80;;;3.85;;
44078;SDS011;29744;49.078;12.878;2024-03-08T13:18:33;6.00;;;3.50;;
44078;SDS011;29744;49.078;12.878;2024-03-08T13:23:33;5.20;;;3.50;;
44078;SDS011;29744;49.078;12.878;2024-03-08T13:28:39;5.20;;;3.60;;
44078;SDS011;29744;49.078;12.878;2024-03-08T13:33:42;4.95;;;3.33;;
44078;SDS011;29744;49.078;12.878;2024-03-08T13:38:47;4.55;;;3.17;;
44078;SDS011;29744;49.078;12.878;2024-03-08T13:43:48;4.50;;;3.35;;
44078;SDS011;29744;49.078;12.878;2024-03-08T13:48:49;5.45;;;3.40;;
44078;SDS011;29744;49.078;12.878;2024-03-08T13:53:50;5.68;;;3.70;;
44078;SDS011;29744;49.078;12.878;2024-03-08T13:58:51;4.80;;;3.30;;
44078;SDS011;29744;49.078;12.878;2024-03-08T14:03:51;4.55;;;3.15;;
44078;SDS011;29744;49.078;12.878;2024-03-08T14:08:51;4.88;;;3.30;;
44078;SDS011;29744;49.078;12.878;2024-03-08T14:13:53;5.53;;;3.40;;
44078;SDS011;29744;49.078;12.878;2024-03-08T14:18:53;4.63;;;3.00;;
44078;SDS011;29744;49.078;12.878;2024-03-08T14:23:54;4.88;;;3.47;;
44078;SDS011;29744;49.078;12.878;2024-03-08T14:28:54;5.00;;;3.38;;
44078;SDS011;29744;49.078;12.878;2024-03-08T14:33:54;4.43;;;3.10;;
44078;SDS011;29744;49.078;12.878;2024-03-08T14:38:57;5.13;;;3.15;;
44078;SDS011;29744;49.078;12.878;2024-03-08T14:43:57;4.53;;;3.15;;
44078;SDS011;29744;49.078;12.878;2024-03-08T14:48:58;4.50;;;3.08;;
44078;SDS011;29744;49.078;12.878;2024-03-08T14:53:58;5.18;;;3.40;;
44078;SDS011;29744;49.078;12.878;2024-03-08T14:58:58;4.70;;;3.25;;
44078;SDS011;29744;49.078;12.878;2024-03-08T15:03:59;5.40;;;3.20;;
44078;SDS011;29744;49.078;12.878;2024-03-08T15:09:08;4.47;;;3.00;;
44078;SDS011;29744;49.078;12.878;2024-03-08T15:14:12;5.13;;;3.13;;
44078;SDS011;29744;49.078;12.878;2024-03-08T15:19:13;3.95;;;2.88;;
44078;SDS011;29744;49.078;12.878;2024-03-08T15:24:15;4.03;;;2.53;;
44078;SDS011;29744;49.078;12.878;2024-03-08T15:29:21;4.30;;;3.00;;
44078;SDS011;29744;49.078;12.878;2024-03-08T15:34:26;4.40;;;2.90;;
44078;SDS011;29744;49.078;12.878;2024-03-08T15:39:26;3.90;;;2.80;;
44078;SDS011;29744;49.078;12.878;2024-03-08T15:44:27;5.05;;;3.13;;
44078;SDS011;29744;49.078;12.878;2024-03-08T15:49:28;4.40;;;2.83;;
44078;SDS011;29744;49.078;12.878;2024-03-08T15:54:28;4.47;;;3.05;;
44078;SDS011;29744;49.078;12.878;2024-03-08T15:59:29;3.50;;;2.35;;
44078;SDS011;29744;49.078;12.878;2024-03-08T16:04:33;4.35;;;2.85;;
44078;SDS011;29744;49.078;12.878;2024-03-08T16:09:34;4.78;;;2.97;;
44078;SDS011;29744;49.078;12.878;2024-03-08T16:14:38;4.57;;;2.80;;
44078;SDS011;29744;49.078;12.878;2024-03-08T16:19:38;3.97;;;2.83;;
44078;SDS011;29744;49.078;12.878;2024-03-08T16:24:42;4.40;;;2.58;;
44078;SDS011;29744;49.078;12.878;2024-03-08T16:29:43;4.47;;;2.75;;
44078;SDS011;29744;49.078;12.878;2024-03-08T16:34:44;4.32;;;2.80;;
44078;SDS011;29744;49.078;12.878;2024-03-08T16:39:45;4.20;;;2.63;;
44078;SDS011;29744;49.078;12.878;2024-03-08T16:44:45;4.45;;;2.50;;
44078;SDS011;29744;49.078;12.878;2024-03-08T16:49:45;4.35;;;2.63;;
44078;SDS011;29744;49.078;12.878;2024-03-08T16:54:46;3.70;;;2.30;;
44078;SDS011;29744;49.078;12.878;2024-03-08T16:59:46;4.30;;;2.70;;
44078;SDS011;29744;49.078;12.878;2024-03-08T17:04:47;3.10;;;2.08;;
44078;SDS011;29744;49.078;12.878;2024-03-08T17:09:48;4.22;;;2.53;;
44078;SDS011;29744;49.078;12.878;2024-03-08T17:14:48;3.80;;;2.40;;
44078;SDS011;29744;49.078;12.878;2024-03-08T17:19:49;3.90;;;2.45;;
44078;SDS011;29744;49.078;12.878;2024-03-08T17:24:50;3.95;;;2.30;;
44078;SDS011;29744;49.078;12.878;2024-03-08T17:29:50;3.17;;;1.88;;
44078;SDS011;29744;49.078;12.878;2024-03-08T17:34:51;4.15;;;2.47;;
44078;SDS011;29744;49.078;12.878;2024-03-08T17:39:52;3.13;;;2.10;;
44078;SDS011;29744;49.078;12.878;2024-03-08T17:44:55;3.25;;;2.08;;
44078;SDS011;29744;49.078;12.878;2024-03-08T17:49:57;3.40;;;2.05;;
44078;SDS011;29744;49.078;12.878;2024-03-08T17:54:57;2.92;;;1.98;;
44078;SDS011;29744;49.078;12.878;2024-03-08T17:59:58;2.88;;;2.00;;
44078;SDS011;29744;49.078;12.878;2024-03-08T18:04:58;3.47;;;2.05;;
44078;SDS011;29744;49.078;12.878;2024-03-08T18:10:00;2.97;;;1.95;;
44078;SDS011;29744;49.078;12.878;2024-03-08T18:15:01;3.42;;;2.20;;
44078;SDS011;29744;49.078;12.878;2024-03-08T18:20:02;3.20;;;1.75;;
44078;SDS011;29744;49.078;12.878;2024-03-08T18:25:02;3.42;;;2.03;;
44078;SDS011;29744;49.078;12.878;2024-03-08T18:30:06;3.13;;;1.90;;
44078;SDS011;29744;49.078;12.878;2024-03-08T18:35:16;3.10;;;1.90;;
44078;SDS011;29744;49.078;12.878;2024-03-08T18:40:16;2.88;;;1.90;;
44078;SDS011;29744;49.078;12.878;2024-03-08T18:45:22;2.97;;;1.90;;
44078;SDS011;29744;49.078;12.878;2024-03-08T18:50:25;3.35;;;2.10;;
44078;SDS011;29744;49.078;12.878;2024-03-08T18:55:28;2.60;;;1.67;;
44078;SDS011;29744;49.078;12.878;2024-03-08T19:00:28;2.75;;;1.70;;
44078;SDS011;29744;49.078;12.878;2024-03-08T19:05:37;3.13;;;1.90;;
44078;SDS011;29744;49.078;12.878;2024-03-08T19:10:40;2.60;;;1.50;;
44078;SDS011;29744;49.078;12.878;2024-03-08T19:15:40;2.47;;;1.58;;
44078;SDS011;29744;49.078;12.878;2024-03-08T19:20:42;2.97;;;1.80;;
44078;SDS011;29744;49.078;12.878;2024-03-08T19:25:43;2.72;;;1.48;;
44078;SDS011;29744;49.078;12.878;2024-03-08T19:30:44;2.60;;;1.50;;
44078;SDS011;29744;49.078;12.878;2024-03-08T19:35:45;3.00;;;1.52;;
44078;SDS011;29744;49.078;12.878;2024-03-08T19:40:46;2.70;;;1.50;;
44078;SDS011;29744;49.078;12.878;2024-03-08T19:45:48;2.72;;;1.50;;
44078;SDS011;29744;49.078;12.878;2024-03-08T19:50:52;2.03;;;1.40;;
44078;SDS011;29744;49.078;12.878;2024-03-08T19:55:52;2.70;;;1.73;;
44078;SDS011;29744;49.078;12.878;2024-03-08T20:00:55;2.90;;;1.65;;
44078;SDS011;29744;49.078;12.878;2024-03-08T20:05:55;2.13;;;1.30;;
44078;SDS011;29744;49.078;12.878;2024-03-08T20:10:57;2.00;;;1.40;;
44078;SDS011;29744;49.078;12.878;2024-03-08T20:16:06;2.08;;;1.40;;
44078;SDS011;29744;49.078;12.878;2024-03-08T20:21:09;2.93;;;1.60;;
44078;SDS011;29744;49.078;12.878;2024-03-08T20:26:09;2.13;;;1.40;;
44078;SDS011;29744;49.078;12.878;2024-03-08T20:31:10;2.28;;;1.50;;
44078;SDS011;29744;49.078;12.878;2024-03-08T20:36:13;2.92;;;1.70;;
44078;SDS011;29744;49.078;12.878;2024-03-08T20:41:13;2.55;;;1.50;;
44078;SDS011;29744;49.078;12.878;2024-03-08T20:46:16;3.00;;;1.80;;
44078;SDS011;29744;49.078;12.878;2024-03-08T20:51:17;2.60;;;1.52;;
44078;SDS011;29744;49.078;12.878;2024-03-08T20:56:18;2.40;;;1.40;;
44078;SDS011;29744;49.078;12.878;2024-03-08T21:01:18;2.42;;;1.42;;
44078;SDS011;29744;49.078;12.878;2024-03-08T21:06:19;2.10;;;1.45;;
44078;SDS011;29744;49.078;12.878;2024-03-08T21:11:21;2.45;;;1.60;;
44078;SDS011;29744;49.078;12.878;2024-03-08T21:16:23;1.90;;;1.25;;
44078;SDS011;29744;49.078;12.878;2024-03-08T21:21:23;2.40;;;1.40;;
44078;SDS011;29744;49.078;12.878;2024-03-08T21:26:25;2.00;;;1.30;;
44078;SDS011;29744;49.078;12.878;2024-03-08T21:31:26;2.13;;;1.38;;
44078;SDS011;29744;49.078;12.878;2024-03-08T21:36:28;2.63;;;1.60;;
44078;SDS011;29744;49.078;12.878;2024-03-08T21:41:29;2.45;;;1.48;;
44078;SDS011;29744;49.078;12.878;2024-03-08T21:46:29;2.28;;;1.42;;
44078;SDS011;29744;49.078;12.878;2024-03-08T21:51:30;2.28;;;1.33;;
44078;SDS011;29744;49.078;12.878;2024-03-08T21:56:30;2.60;;;1.58;;
44078;SDS011;29744;49.078;12.878;2024-03-08T22:01:31;2.10;;;1.40;;
44078;SDS011;29744;49.078;12.878;2024-03-08T22:06:32;2.25;;;1.40;;
44078;SDS011;29744;49.078;12.878;2024-03-08T22:11:32;2.40;;;1.60;;
44078;SDS011;29744;49.078;12.878;2024-03-08T22:16:33;1.83;;;1.20;;
44078;SDS011;29744;49.078;12.878;2024-03-08T22:21:35;2.33;;;1.40;;
44078;SDS011;29744;49.078;12.878;2024-03-08T22:26:36;1.92;;;1.20;;
44078;SDS011;29744;49.078;12.878;2024-03-08T22:31:36;2.03;;;1.30;;
44078;SDS011;29744;49.078;12.878;2024-03-08T22:36:39;1.98;;;1.25;;
44078;SDS011;29744;49.078;12.878;2024-03-08T22:41:39;2.08;;;1.30;;
44078;SDS011;29744;49.078;12.878;2024-03-08T22:46:40;2.20;;;1.30;;
44078;SDS011;29744;49.078;12.878;2024-03-08T22:51:40;2.33;;;1.45;;
44078;SDS011;29744;49.078;12.878;2024-03-08T22:56:43;2.00;;;1.20;;
44078;SDS011;29744;49.078;12.878;2024-03-08T23:01:46;2.40;;;1.40;;
44078;SDS011;29744;49.078;12.878;2024-03-08T23:06:47;2.33;;;1.27;;
44078;SDS011;29744;49.078;12.878;2024-03-08T23:11:47;2.00;;;1.30;;
44078;SDS011;29744;49.078;12.878;2024-03-08T23:16:48;2.15;;;1.25;;
44078;SDS011;29744;49.078;12.878;2024-03-08T23:21:50;1.92;;;1.35;;
44078;SDS011;29744;49.078;12.878;2024-03-08T23:26:50;1.90;;;1.30;;
44078;SDS011;29744;49.078;12.878;2024-03-08T23:31:51;1.92;;;1.30;;
44078;SDS011;29744;49.078;12.878;2024-03-08T23:36:51;1.40;;;1.00;;
44078;SDS011;29744;49.078;12.878;2024-03-08T23:41:52;1.80;;;1.23;;
44078;SDS011;29744;49.078;12.878;2024-03-08T23:46:53;2.25;;;1.30;;
44078;SDS011;29744;49.078;12.878;2024-03-08T23:51:53;2.50;;;1.38;;
44078;SDS011;29744;49.078;12.878;2024-03-08T23:56:54;2.35;;;1.42;;
